Time;durP1;ratioP1;P1;durP2;ratioP2;P2;SDS_P1;SDS_P2;PMS_P1;PMS_P2;Temp;Humidity;BMP_temperature;BMP_pressure;BME280_temperature;BME280_humidity;BME280_pressure;Samples;Min_cycle;Max_cycle;Signal;HPM_P1;HPM_P2
2024/01/02 00:02:20;;;;;;;5.20;1.70;;;;;;;;;;5055803;28;20147;-63
2024/01/02 00:04:48;;;;;;;7.55;1.25;;;;;;;;;;5049752;27;20132;-63
2024/01/02 00:07:15;;;;;;;5.28;0.77;;;;;;;;;;5055375;28;20053;-62
2024/01/02 00:09:45;;;;;;;10.63;1.73;;;;;;;;;;5053878;27;20045;-64
2024/01/02 00:12:13;;;;;;;6.68;1.23;;;;;;;;;;5072364;28;20083;-63
2024/01/02 00:14:41;;;;;;;6.07;1.10;;;;;;;;;;5040435;28;20087;-63
2024/01/02 00:17:07;;;;;;;9.20;1.40;;;;;;;;;;5044737;28;20052;-62
2024/01/02 00:19:34;;;;;;;6.95;1.35;;;;;;;;;;5055804;27;20040;-62
2024/01/02 00:22:00;;;;;;;5.15;1.15;;;;;;;;;;5041526;28;20951;-62
2024/01/02 00:24:28;;;;;;;6.40;1.40;;;;;;;;;;5038387;28;20073;-62
2024/01/02 00:26:54;;;;;;;8.75;1.33;;;;;;;;;;5043830;28;20158;-62
2024/01/02 00:29:22;;;;;;;7.13;1.73;;;;;;;;;;5041290;28;20063;-62
2024/01/02 00:31:49;;;;;;;4.97;1.42;;;;;;;;;;5042055;28;20619;-62
2024/01/02 00:34:16;;;;;;;6.13;1.30;;;;;;;;;;5039215;28;20053;-63
2024/01/02 00:36:42;;;;;;;8.43;1.20;;;;;;;;;;5041344;28;20052;-62
2024/01/02 00:39:10;;;;;;;7.22;1.10;;;;;;;;;;5040849;28;20052;-62
2024/01/02 00:41:37;;;;;;;6.80;1.15;;;;;;;;;;5040140;28;20061;-63
2024/01/02 00:44:07;;;;;;;2.97;1.13;;;;;;;;;;5039421;28;20056;-63
2024/01/02 00:46:35;;;;;;;7.57;1.42;;;;;;;;;;5040534;28;20064;-62
2024/01/02 00:49:01;;;;;;;13.55;1.35;;;;;;;;;;5037131;28;20068;-62
2024/01/02 00:51:28;;;;;;;6.47;0.88;;;;;;;;;;5043133;28;20179;-61
2024/01/02 00:53:55;;;;;;;3.40;1.13;;;;;;;;;;5036674;27;20051;-63
2024/01/02 00:56:21;;;;;;;3.03;1.20;;;;;;;;;;5039569;28;20122;-63
2024/01/02 00:58:48;;;;;;;5.97;1.10;;;;;;;;;;5039064;28;20052;-63
2024/01/02 01:01:18;;;;;;;8.80;1.20;;;;;;;;;;5047461;28;20063;-62
2024/01/02 01:03:46;;;;;;;6.90;0.70;;;;;;;;;;5035667;28;20519;-63
2024/01/02 01:06:12;;;;;;;7.68;1.15;;;;;;;;;;5020845;28;20061;-62
2024/01/02 01:08:39;;;;;;;4.50;1.02;;;;;;;;;;5050054;28;20091;-64
2024/01/02 01:11:06;;;;;;;3.92;0.95;;;;;;;;;;5024041;28;20045;-62
2024/01/02 01:13:33;;;;;;;3.05;1.08;;;;;;;;;;5032084;28;20208;-63
2024/01/02 01:16:00;;;;;;;8.38;0.98;;;;;;;;;;5025216;28;20223;-62
2024/01/02 01:18:27;;;;;;;5.25;1.30;;;;;;;;;;5036457;28;20115;-63
2024/01/02 01:20:56;;;;;;;4.28;0.80;;;;;;;;;;5024973;28;20107;-63
2024/01/02 01:23:23;;;;;;;3.35;0.95;;;;;;;;;;5035924;28;20057;-62
2024/01/02 01:25:49;;;;;;;4.00;0.90;;;;;;;;;;5022103;28;20047;-63
2024/01/02 01:28:16;;;;;;;2.40;0.90;;;;;;;;;;5024691;28;20073;-62
2024/01/02 01:30:44;;;;;;;3.58;1.00;;;;;;;;;;5025335;28;20054;-63
2024/01/02 01:33:10;;;;;;;4.40;1.00;;;;;;;;;;5018007;28;20045;-62
2024/01/02 01:35:37;;;;;;;1.55;0.68;;;;;;;;;;5019796;28;20061;-62
2024/01/02 01:38:05;;;;;;;2.83;0.80;;;;;;;;;;5000829;28;20046;-62
2024/01/02 01:40:32;;;;;;;6.30;0.80;;;;;;;;;;5029914;28;20084;-62
2024/01/02 01:42:59;;;;;;;2.00;0.52;;;;;;;;;;5024773;28;20049;-62
2024/01/02 01:45:25;;;;;;;1.70;0.60;;;;;;;;;;5026767;28;20040;-63
2024/01/02 01:47:52;;;;;;;2.75;1.02;;;;;;;;;;5037226;27;20092;-62
2024/01/02 01:50:19;;;;;;;1.50;0.70;;;;;;;;;;5043919;28;20103;-62
2024/01/02 01:52:46;;;;;;;2.53;0.93;;;;;;;;;;5041904;28;20073;-62
2024/01/02 01:55:14;;;;;;;2.42;0.77;;;;;;;;;;5037224;28;20141;-63
2024/01/02 01:57:45;;;;;;;1.38;0.85;;;;;;;;;;5038556;28;20048;-62
2024/01/02 02:00:12;;;;;;;2.35;0.50;;;;;;;;;;5049644;28;20044;-63
2024/01/02 02:02:41;;;;;;;0.88;0.40;;;;;;;;;;5040160;28;20045;-62
2024/01/02 02:05:08;;;;;;;;;;;;;;;;;;5042022;28;20037;-63
2024/01/02 02:07:35;;;;;;;3.63;1.05;;;;;;;;;;5040637;28;19979;-63
2024/01/02 02:10:02;;;;;;;1.23;0.60;;;;;;;;;;5034678;28;20084;-62
2024/01/02 02:12:30;;;;;;;3.67;0.57;;;;;;;;;;5042339;28;20052;-63
2024/01/02 02:14:57;;;;;;;2.92;0.60;;;;;;;;;;5036301;28;20136;-63
2024/01/02 02:17:23;;;;;;;6.85;0.98;;;;;;;;;;5043409;28;20463;-63
2024/01/02 02:19:50;;;;;;;1.27;0.50;;;;;;;;;;5035567;28;20041;-63
2024/01/02 02:22:18;;;;;;;8.80;0.70;;;;;;;;;;5039675;28;20053;-63
2024/01/02 02:24:47;;;;;;;3.20;0.60;;;;;;;;;;5035287;28;20064;-62
2024/01/02 02:27:16;;;;;;;3.53;0.70;;;;;;;;;;5043371;28;20108;-62
2024/01/02 02:29:43;;;;;;;2.50;0.60;;;;;;;;;;5038124;28;20048;-63
2024/01/02 02:32:09;;;;;;;0.25;0.20;;;;;;;;;;5040527;28;20059;-62
2024/01/02 02:34:36;;;;;;;0.82;0.30;;;;;;;;;;5041963;28;20143;-63
2024/01/02 02:37:03;;;;;;;0.63;0.40;;;;;;;;;;5043023;27;20063;-62
2024/01/02 02:39:32;;;;;;;1.40;0.50;;;;;;;;;;5040404;28;20076;-62
2024/01/02 02:42:00;;;;;;;1.80;0.50;;;;;;;;;;5039483;28;20087;-62
2024/01/02 02:44:26;;;;;;;1.90;0.60;;;;;;;;;;5036645;28;20061;-64
2024/01/02 02:46:53;;;;;;;0.88;0.40;;;;;;;;;;5044454;28;20057;-62
2024/01/02 02:49:20;;;;;;;1.75;1.10;;;;;;;;;;5038820;28;20049;-62
2024/01/02 02:51:46;;;;;;;0.85;0.35;;;;;;;;;;5035558;28;20089;-61
2024/01/02 02:54:13;;;;;;;2.45;0.77;;;;;;;;;;5042009;28;21068;-63
2024/01/02 02:56:42;;;;;;;2.80;0.30;;;;;;;;;;5039217;27;20139;-62
2024/01/02 02:59:11;;;;;;;1.70;0.52;;;;;;;;;;5045370;28;20051;-63
2024/01/02 03:01:37;;;;;;;0.65;0.40;;;;;;;;;;5039582;28;20044;-63
2024/01/02 03:04:04;;;;;;;2.67;0.40;;;;;;;;;;5018752;28;20046;-61
2024/01/02 03:06:31;;;;;;;1.48;0.38;;;;;;;;;;5038095;28;20053;-63
2024/01/02 03:08:58;;;;;;;0.32;0.20;;;;;;;;;;5040156;28;20045;-62
2024/01/02 03:11:24;;;;;;;0.80;0.40;;;;;;;;;;5047872;28;20113;-62
2024/01/02 03:13:52;;;;;;;0.30;0.25;;;;;;;;;;5029717;28;20063;-64
2024/01/02 03:16:20;;;;;;;0.10;0.10;;;;;;;;;;5040208;28;20049;-62
2024/01/02 03:18:47;;;;;;;0.45;0.25;;;;;;;;;;5041193;27;20080;-62
2024/01/02 03:21:14;;;;;;;0.80;0.20;;;;;;;;;;5040228;28;20060;-63
2024/01/02 03:23:40;;;;;;;0.20;0.20;;;;;;;;;;5062662;28;20115;-63
2024/01/02 03:26:08;;;;;;;0.10;0.10;;;;;;;;;;5034190;28;20123;-62
2024/01/02 03:28:34;;;;;;;0.20;0.20;;;;;;;;;;5038180;28;20057;-62
2024/01/02 03:31:03;;;;;;;1.13;0.40;;;;;;;;;;5041737;28;20041;-61
2024/01/02 03:33:31;;;;;;;;;;;;;;;;;;5035743;28;20052;-62
2024/01/02 03:35:57;;;;;;;3.33;0.25;;;;;;;;;;5040660;27;20023;-63
2024/01/02 03:38:24;;;;;;;1.60;0.30;;;;;;;;;;5037773;28;20107;-63
2024/01/02 03:40:50;;;;;;;0.32;0.15;;;;;;;;;;5040934;28;20053;-62
2024/01/02 03:43:17;;;;;;;0.22;0.22;;;;;;;;;;5036496;28;20045;-63
2024/01/02 03:45:45;;;;;;;0.93;0.38;;;;;;;;;;5041055;28;20048;-62
2024/01/02 03:48:11;;;;;;;0.75;0.30;;;;;;;;;;5038634;28;20048;-63
2024/01/02 03:50:39;;;;;;;0.30;0.30;;;;;;;;;;5032905;28;20112;-62
2024/01/02 03:53:06;;;;;;;0.20;0.20;;;;;;;;;;5042238;28;20132;-62
2024/01/02 03:55:32;;;;;;;0.17;0.17;;;;;;;;;;5037921;28;20057;-63
2024/01/02 03:57:59;;;;;;;0.15;0.13;;;;;;;;;;5038581;28;20126;-63
2024/01/02 04:00:25;;;;;;;0.52;0.30;;;;;;;;;;5040311;28;20077;-63
2024/01/02 04:02:52;;;;;;;0.68;0.30;;;;;;;;;;5049921;28;20139;-63
2024/01/02 04:05:19;;;;;;;0.85;0.40;;;;;;;;;;5038290;28;20056;-63
2024/01/02 04:07:49;;;;;;;1.15;0.40;;;;;;;;;;5040883;28;20052;-63
2024/01/02 04:10:15;;;;;;;0.73;0.30;;;;;;;;;;5046790;28;20943;-64
2024/01/02 04:12:42;;;;;;;1.95;0.40;;;;;;;;;;5042513;28;20049;-62
2024/01/02 04:15:09;;;;;;;1.00;0.43;;;;;;;;;;5039326;28;20076;-63
2024/01/02 04:17:35;;;;;;;0.30;0.30;;;;;;;;;;5042303;28;20142;-63
2024/01/02 04:20:02;;;;;;;0.20;0.20;;;;;;;;;;5039557;28;20044;-63
2024/01/02 04:22:29;;;;;;;0.45;0.30;;;;;;;;;;5080632;27;20064;-63
2024/01/02 04:24:57;;;;;;;1.05;0.20;;;;;;;;;;5040988;28;20053;-63
2024/01/02 04:27:24;;;;;;;0.20;0.20;;;;;;;;;;5042710;28;20048;-63
2024/01/02 04:29:50;;;;;;;0.20;0.20;;;;;;;;;;5040015;28;20146;-63
2024/01/02 04:32:17;;;;;;;1.02;0.38;;;;;;;;;;5042596;28;21829;-63
2024/01/02 04:34:44;;;;;;;0.30;0.30;;;;;;;;;;5039565;28;20045;-64
2024/01/02 04:37:11;;;;;;;0.20;0.20;;;;;;;;;;5044280;28;20049;-64
2024/01/02 04:39:37;;;;;;;1.27;0.40;;;;;;;;;;5041045;28;20075;-64
2024/01/02 04:42:06;;;;;;;0.30;0.30;;;;;;;;;;5040392;28;20394;-63
2024/01/02 04:44:32;;;;;;;0.30;0.30;;;;;;;;;;5045440;28;20080;-63
2024/01/02 04:46:59;;;;;;;0.30;0.20;;;;;;;;;;5041787;28;20106;-63
2024/01/02 04:49:26;;;;;;;0.28;0.20;;;;;;;;;;5040167;28;20045;-64
2024/01/02 04:51:52;;;;;;;0.32;0.32;;;;;;;;;;5038599;28;20083;-64
2024/01/02 04:54:19;;;;;;;0.57;0.45;;;;;;;;;;5035874;28;20056;-63
2024/01/02 04:56:46;;;;;;;0.80;0.50;;;;;;;;;;5041605;28;20045;-63
2024/01/02 04:59:14;;;;;;;0.82;0.47;;;;;;;;;;5042073;28;20044;-64
2024/01/02 05:01:40;;;;;;;0.20;0.20;;;;;;;;;;5046167;28;20056;-63
2024/01/02 05:04:07;;;;;;;0.30;0.30;;;;;;;;;;5031553;28;20053;-63
2024/01/02 05:06:34;;;;;;;0.22;0.22;;;;;;;;;;5046161;28;20044;-64
2024/01/02 05:09:00;;;;;;;0.30;0.30;;;;;;;;;;5038984;28;20114;-64
2024/01/02 05:11:27;;;;;;;0.30;0.30;;;;;;;;;;5043765;28;20049;-63
2024/01/02 05:13:54;;;;;;;0.85;0.50;;;;;;;;;;5032075;28;20061;-63
2024/01/02 05:16:23;;;;;;;1.52;0.77;;;;;;;;;;5073743;28;20059;-63
2024/01/02 05:18:49;;;;;;;;;;;;;;;;;;5039684;28;20060;-64
2024/01/02 05:21:16;;;;;;;0.38;0.30;;;;;;;;;;5043980;28;19932;-64
2024/01/02 05:23:44;;;;;;;0.20;0.20;;;;;;;;;;5037614;28;20053;-63
2024/01/02 05:26:10;;;;;;;0.20;0.20;;;;;;;;;;5035203;28;20037;-64
2024/01/02 05:28:37;;;;;;;0.20;0.20;;;;;;;;;;5035706;28;20073;-64
2024/01/02 05:31:04;;;;;;;0.20;0.20;;;;;;;;;;5066988;28;20120;-64
2024/01/02 05:33:32;;;;;;;0.20;0.20;;;;;;;;;;5037590;28;20135;-63
2024/01/02 05:35:58;;;;;;;0.40;0.30;;;;;;;;;;5031305;28;20068;-64
2024/01/02 05:38:25;;;;;;;3.03;1.40;;;;;;;;;;5040475;28;20214;-64
2024/01/02 05:40:52;;;;;;;7.30;2.97;;;;;;;;;;5041867;28;20049;-63
2024/01/02 05:43:18;;;;;;;0.75;0.60;;;;;;;;;;5037591;28;20045;-64
2024/01/02 05:45:45;;;;;;;0.22;0.22;;;;;;;;;;5026862;28;20107;-63
2024/01/02 05:48:12;;;;;;;0.20;0.20;;;;;;;;;;5022670;28;20052;-64
2024/01/02 05:50:40;;;;;;;0.30;0.30;;;;;;;;;;5035464;28;20080;-64
2024/01/02 05:53:09;;;;;;;0.32;0.32;;;;;;;;;;5029597;28;20053;-62
2024/01/02 05:55:35;;;;;;;0.30;0.30;;;;;;;;;;5023186;28;20048;-62
2024/01/02 05:58:02;;;;;;;0.57;0.40;;;;;;;;;;5061662;27;20166;-64
2024/01/02 06:00:28;;;;;;;0.63;0.40;;;;;;;;;;5023664;28;20057;-62
2024/01/02 06:02:55;;;;;;;0.30;0.30;;;;;;;;;;5046588;28;20053;-62
2024/01/02 06:05:22;;;;;;;0.68;0.60;;;;;;;;;;5033512;28;20052;-63
2024/01/02 06:07:50;;;;;;;0.40;0.40;;;;;;;;;;5037595;28;20136;-64
2024/01/02 06:10:17;;;;;;;0.85;0.50;;;;;;;;;;5035422;28;20159;-64
2024/01/02 06:12:44;;;;;;;0.50;0.50;;;;;;;;;;5036004;28;20066;-63
2024/01/02 06:15:10;;;;;;;2.90;1.27;;;;;;;;;;5025925;28;20072;-64
2024/01/02 06:17:37;;;;;;;5.70;2.42;;;;;;;;;;5045125;28;20073;-63
2024/01/02 06:20:10;;;;;;;1.10;0.63;;;;;;;;;;5022723;28;20476;-63
2024/01/02 06:22:37;;;;;;;1.02;0.63;;;;;;;;;;5037151;28;20048;-63
2024/01/02 06:25:08;;;;;;;1.25;0.90;;;;;;;;;;5039114;28;20116;-64
2024/01/02 06:27:34;;;;;;;0.75;0.50;;;;;;;;;;5030352;28;20176;-63
2024/01/02 06:30:01;;;;;;;1.52;0.73;;;;;;;;;;5026042;28;20137;-63
2024/01/02 06:32:28;;;;;;;1.25;0.63;;;;;;;;;;5035532;28;20061;-64
2024/01/02 06:34:55;;;;;;;2.70;0.90;;;;;;;;;;5029887;28;20099;-63
2024/01/02 06:37:23;;;;;;;1.67;0.85;;;;;;;;;;5033783;28;20045;-63
2024/01/02 06:40:15;;;;;;;2.42;0.82;;;;;;;;;;5032759;28;20081;-64
2024/01/02 06:42:42;;;;;;;1.40;0.75;;;;;;;;;;5072662;27;20135;-64
2024/01/02 06:45:09;;;;;;;3.53;1.05;;;;;;;;;;5036143;28;20044;-64
2024/01/02 06:47:37;;;;;;;2.38;1.20;;;;;;;;;;5042069;28;20053;-64
2024/01/02 06:50:05;;;;;;;4.82;1.98;;;;;;;;;;5065312;28;20107;-63
2024/01/02 06:52:32;;;;;;;4.30;1.40;;;;;;;;;;5040257;27;20060;-64
2024/01/02 06:54:58;;;;;;;4.07;1.30;;;;;;;;;;5034823;28;20068;-64
2024/01/02 06:57:26;;;;;;;4.50;1.40;;;;;;;;;;5039889;28;20049;-64
2024/01/02 06:59:53;;;;;;;1.63;0.98;;;;;;;;;;5033909;28;20109;-64
2024/01/02 07:02:20;;;;;;;4.72;1.17;;;;;;;;;;5039157;28;20064;-64
2024/01/02 07:04:47;;;;;;;2.55;1.10;;;;;;;;;;5026471;28;20064;-64
2024/01/02 07:07:13;;;;;;;3.42;1.20;;;;;;;;;;5037592;28;20057;-64
2024/01/02 07:09:40;;;;;;;6.18;1.65;;;;;;;;;;5073448;28;20062;-64
2024/01/02 07:12:07;;;;;;;6.50;1.38;;;;;;;;;;5036374;28;20117;-63
2024/01/02 07:14:37;;;;;;;4.15;1.17;;;;;;;;;;5035492;28;20128;-64
2024/01/02 07:17:04;;;;;;;5.40;0.98;;;;;;;;;;5048451;27;20112;-64
2024/01/02 07:19:31;;;;;;;4.35;1.38;;;;;;;;;;5039759;28;20125;-63
2024/01/02 07:21:57;;;;;;;5.85;1.42;;;;;;;;;;5036942;28;20073;-64
2024/01/02 07:24:24;;;;;;;6.05;1.80;;;;;;;;;;5035530;28;20107;-64
2024/01/02 07:26:50;;;;;;;12.35;3.88;;;;;;;;;;5047850;28;20049;-65
2024/01/02 07:29:17;;;;;;;11.80;2.30;;;;;;;;;;5042946;28;20128;-63
2024/01/02 07:31:45;;;;;;;4.63;1.00;;;;;;;;;;5044419;28;20095;-64
2024/01/02 07:34:13;;;;;;;13.30;1.75;;;;;;;;;;5040504;28;20063;-64
2024/01/02 07:36:40;;;;;;;17.85;6.30;;;;;;;;;;5043140;28;20080;-63
2024/01/02 07:39:06;;;;;;;6.70;1.35;;;;;;;;;;5043782;28;20110;-63
2024/01/02 07:41:33;;;;;;;8.07;1.42;;;;;;;;;;5051305;28;20036;-63
2024/01/02 07:44:00;;;;;;;8.63;1.65;;;;;;;;;;5032445;28;20069;-63
2024/01/02 07:46:27;;;;;;;9.23;1.33;;;;;;;;;;5046343;28;20092;-63
2024/01/02 07:48:55;;;;;;;8.40;2.13;;;;;;;;;;5045312;28;20145;-63
2024/01/02 07:51:22;;;;;;;3.63;1.00;;;;;;;;;;5045336;28;20045;-63
2024/01/02 07:53:48;;;;;;;5.90;0.95;;;;;;;;;;5037647;28;20157;-63
2024/01/02 07:56:18;;;;;;;11.45;1.10;;;;;;;;;;5036573;28;20127;-63
2024/01/02 07:58:47;;;;;;;11.02;1.17;;;;;;;;;;5062821;28;20033;-62
2024/01/02 08:01:13;;;;;;;6.45;1.15;;;;;;;;;;5059081;28;20112;-63
2024/01/02 08:03:40;;;;;;;8.70;0.90;;;;;;;;;;5025910;28;20037;-63
2024/01/02 08:06:11;;;;;;;12.63;1.73;;;;;;;;;;5063968;28;20056;-64
2024/01/02 08:08:38;;;;;;;6.43;1.58;;;;;;;;;;5045844;28;20045;-63
2024/01/02 08:11:05;;;;;;;10.13;1.42;;;;;;;;;;5054912;28;20045;-64
2024/01/02 08:13:31;;;;;;;8.55;1.40;;;;;;;;;;5039962;28;20080;-63
2024/01/02 08:15:58;;;;;;;13.57;1.55;;;;;;;;;;5043080;28;20080;-65
2024/01/02 08:18:25;;;;;;;7.70;1.35;;;;;;;;;;5042786;28;20068;-63
2024/01/02 08:20:52;;;;;;;14.68;2.10;;;;;;;;;;5041387;28;20045;-65
2024/01/02 08:23:20;;;;;;;10.68;1.20;;;;;;;;;;5043675;28;20053;-63
2024/01/02 08:25:46;;;;;;;9.57;1.17;;;;;;;;;;4996119;28;20057;-63
2024/01/02 08:28:13;;;;;;;8.70;1.65;;;;;;;;;;5039983;28;21274;-63
2024/01/02 08:30:42;;;;;;;11.70;1.42;;;;;;;;;;5044001;28;20112;-63
2024/01/02 08:33:09;;;;;;;15.27;1.90;;;;;;;;;;5050149;28;20073;-65
2024/01/02 08:35:36;;;;;;;14.00;2.55;;;;;;;;;;5033384;28;20438;-61
2024/01/02 08:38:03;;;;;;;15.18;1.63;;;;;;;;;;5038640;28;20040;-63
2024/01/02 08:40:31;;;;;;;8.88;1.70;;;;;;;;;;5042131;28;20056;-62
2024/01/02 08:42:58;;;;;;;6.30;1.30;;;;;;;;;;5042357;28;20048;-62
2024/01/02 08:45:25;;;;;;;13.75;1.65;;;;;;;;;;5038024;28;20083;-61
2024/01/02 08:47:51;;;;;;;11.13;2.08;;;;;;;;;;5038428;28;20061;-62
2024/01/02 08:50:18;;;;;;;14.55;3.15;;;;;;;;;;5041346;28;20061;-61
2024/01/02 08:52:47;;;;;;;14.85;2.78;;;;;;;;;;5041119;28;20072;-61
2024/01/02 08:55:14;;;;;;;7.82;1.85;;;;;;;;;;5044405;28;20052;-62
2024/01/02 08:57:54;;;;;;;12.60;1.90;;;;;;;;;;5041010;28;20053;-61
2024/01/02 09:00:21;;;;;;;50.15;11.35;;;;;;;;;;5039114;28;20074;-62
2024/01/02 09:02:48;;;;;;;10.65;2.72;;;;;;;;;;5075096;28;20063;-61
2024/01/02 09:05:15;;;;;;;11.40;1.92;;;;;;;;;;5045902;28;20061;-61
2024/01/02 09:07:42;;;;;;;11.38;1.85;;;;;;;;;;5035916;28;20474;-63
2024/01/02 09:10:13;;;;;;;11.65;1.73;;;;;;;;;;5037324;27;20492;-62
2024/01/02 09:12:41;;;;;;;12.77;1.40;;;;;;;;;;5039069;28;20043;-61
2024/01/02 09:15:13;;;;;;;9.65;1.25;;;;;;;;;;5037441;28;20057;-62
2024/01/02 09:17:40;;;;;;;7.93;1.60;;;;;;;;;;5039314;28;20136;-62
2024/01/02 09:20:19;;;;;;;14.82;1.92;;;;;;;;;;5038986;28;20052;-61
2024/01/02 09:22:46;;;;;;;8.95;1.67;;;;;;;;;;5042434;28;20049;-61
2024/01/02 09:28:22;;;;;;;13.23;1.83;;;;;;;;;;5030637;28;20048;-63
2024/01/02 09:30:53;;;;;;;17.85;2.03;;;;;;;;;;5055676;28;20049;-62
2024/01/02 09:33:20;;;;;;;18.45;2.30;;;;;;;;;;5041433;28;20130;-63
2024/01/02 09:35:55;;;;;;;13.95;1.80;;;;;;;;;;5032608;28;20048;-65
2024/01/02 09:38:22;;;;;;;9.45;2.20;;;;;;;;;;5039748;28;20044;-62
2024/01/02 09:41:12;;;;;;;11.45;1.90;;;;;;;;;;5042468;28;20067;-63
2024/01/02 09:43:50;;;;;;;15.02;1.52;;;;;;;;;;5064026;28;20136;-63
2024/01/02 09:46:30;;;;;;;11.48;1.75;;;;;;;;;;5038899;28;20049;-62
2024/01/02 09:49:08;;;;;;;16.92;2.10;;;;;;;;;;5042317;28;20080;-62
2024/01/02 09:51:44;;;;;;;10.18;1.73;;;;;;;;;;5031025;28;20045;-63
2024/01/02 09:54:25;;;;;;;12.35;2.00;;;;;;;;;;5058967;28;20084;-61
2024/01/02 09:57:02;;;;;;;9.73;1.58;;;;;;;;;;5041964;28;20047;-63
2024/01/02 09:59:40;;;;;;;9.20;2.00;;;;;;;;;;5040560;28;20069;-62
2024/01/02 10:02:39;;;;;;;10.82;1.83;;;;;;;;;;5048793;28;20049;-62
2024/01/02 10:05:15;;;;;;;11.93;2.15;;;;;;;;;;5036214;28;20165;-62
2024/01/02 10:08:08;;;;;;;16.30;1.88;;;;;;;;;;5040431;28;20055;-62
2024/01/02 10:10:37;;;;;;;12.38;2.65;;;;;;;;;;5039114;28;20132;-62
2024/01/02 10:13:18;;;;;;;8.88;1.65;;;;;;;;;;5043973;28;20057;-62
2024/01/02 10:15:53;;;;;;;12.20;2.10;;;;;;;;;;5027043;28;20045;-63
2024/01/02 10:18:27;;;;;;;9.45;2.33;;;;;;;;;;5042858;28;20052;-63
2024/01/02 10:21:04;;;;;;;15.23;3.65;;;;;;;;;;5038938;28;20160;-64
2024/01/02 10:23:46;;;;;;;8.90;2.60;;;;;;;;;;5018829;28;20179;-63
2024/01/02 10:26:15;;;;;;;12.02;2.20;;;;;;;;;;5063563;28;20057;-62
2024/01/02 10:28:43;;;;;;;;;;;;;;;;;;5042416;28;20081;-62
2024/01/02 10:31:15;;;;;;;;;;;;;;;;;;5045064;28;19925;-62
2024/01/02 10:33:44;;;;;;;7.97;2.22;;;;;;;;;;5032277;28;19929;-62
2024/01/02 10:36:12;;;;;;;7.80;2.67;;;;;;;;;;5037014;28;20055;-61
2024/01/02 10:38:56;;;;;;;9.95;2.70;;;;;;;;;;5044257;28;20175;-62
2024/01/02 10:41:45;;;;;;;5.47;2.42;;;;;;;;;;5042331;28;20060;-62
2024/01/02 10:44:22;;;;;;;8.75;3.20;;;;;;;;;;5028425;28;20230;-62
2024/01/02 10:46:59;;;;;;;10.85;2.75;;;;;;;;;;5038708;28;20049;-62
2024/01/02 10:49:34;;;;;;;7.47;2.70;;;;;;;;;;5040802;28;20049;-61
2024/01/02 10:52:03;;;;;;;9.93;2.80;;;;;;;;;;5032115;28;20521;-62
2024/01/02 10:54:36;;;;;;;10.18;3.45;;;;;;;;;;5029822;28;20067;-63
2024/01/02 10:57:07;;;;;;;7.30;2.78;;;;;;;;;;5054356;28;20055;-62
2024/01/02 10:59:56;;;;;;;5.38;2.65;;;;;;;;;;5039292;28;20064;-62
2024/01/02 11:02:41;;;;;;;4.75;2.50;;;;;;;;;;5060171;28;20130;-62
2024/01/02 11:05:18;;;;;;;6.50;3.08;;;;;;;;;;5036015;28;20053;-62
2024/01/02 11:07:56;;;;;;;5.95;2.40;;;;;;;;;;5048252;28;20140;-62
2024/01/02 11:10:25;;;;;;;4.32;2.17;;;;;;;;;;5043752;28;20072;-62
2024/01/02 11:12:55;;;;;;;6.07;2.58;;;;;;;;;;5038889;28;20053;-62
2024/01/02 11:15:27;;;;;;;4.47;2.35;;;;;;;;;;5034919;28;20063;-62
2024/01/02 11:17:56;;;;;;;3.92;1.92;;;;;;;;;;5034236;28;20095;-63
2024/01/02 11:20:31;;;;;;;3.15;1.60;;;;;;;;;;5041263;28;20064;-62
2024/01/02 11:23:02;;;;;;;5.78;2.15;;;;;;;;;;5041964;28;20216;-63
2024/01/02 11:25:37;;;;;;;3.10;1.50;;;;;;;;;;5066657;28;20059;-63
2024/01/02 11:28:06;;;;;;;2.28;1.30;;;;;;;;;;5045911;28;20041;-62
2024/01/02 11:30:34;;;;;;;;;;;;;;;;;;5042571;28;20041;-62
2024/01/02 11:33:08;;;;;;;2.20;1.10;;;;;;;;;;5042079;28;19925;-62
2024/01/02 11:35:47;;;;;;;3.35;1.50;;;;;;;;;;5035980;28;20491;-62
2024/01/02 11:38:21;;;;;;;2.67;1.20;;;;;;;;;;5038657;28;20288;-62
2024/01/02 11:40:59;;;;;;;1.48;0.77;;;;;;;;;;5041748;28;20056;-62
2024/01/02 11:43:37;;;;;;;2.17;0.93;;;;;;;;;;5068711;28;20052;-63
2024/01/02 11:46:07;;;;;;;1.77;0.93;;;;;;;;;;5036335;28;20060;-63
2024/01/02 11:48:43;;;;;;;2.33;1.05;;;;;;;;;;5039780;28;20437;-64
2024/01/02 11:51:19;;;;;;;1.17;0.80;;;;;;;;;;5040017;28;20049;-62
2024/01/02 11:54:06;;;;;;;1.73;0.70;;;;;;;;;;5033711;28;20072;-62
2024/01/02 11:56:34;;;;;;;2.42;1.02;;;;;;;;;;5037932;28;20064;-62
2024/01/02 11:59:12;;;;;;;1.88;0.85;;;;;;;;;;5039892;28;20148;-62
2024/01/02 12:01:52;;;;;;;0.93;0.68;;;;;;;;;;5038381;28;20068;-63
2024/01/02 12:04:30;;;;;;;2.13;0.88;;;;;;;;;;5046131;28;20059;-61
2024/01/02 12:07:09;;;;;;;0.93;0.52;;;;;;;;;;5037228;28;20049;-63
2024/01/02 12:09:42;;;;;;;1.38;0.82;;;;;;;;;;5037843;28;20115;-62
2024/01/02 12:12:14;;;;;;;1.63;1.00;;;;;;;;;;5037215;28;20056;-62
2024/01/02 12:14:50;;;;;;;0.65;0.65;;;;;;;;;;5039723;28;20045;-61
2024/01/02 12:17:20;;;;;;;1.05;0.70;;;;;;;;;;5046996;28;20291;-62
2024/01/02 12:19:53;;;;;;;0.63;0.60;;;;;;;;;;5041190;28;20115;-63
2024/01/02 12:22:22;;;;;;;0.68;0.65;;;;;;;;;;5043203;28;20080;-62
2024/01/02 12:24:51;;;;;;;0.75;0.60;;;;;;;;;;5038102;28;20037;-63
2024/01/02 12:27:20;;;;;;;0.95;0.70;;;;;;;;;;5042092;28;20057;-62
2024/01/02 12:29:48;;;;;;;;;;;;;;;;;;5044991;28;20116;-65
2024/01/02 12:32:22;;;;;;;1.20;0.50;;;;;;;;;;5046462;28;19998;-62
2024/01/02 12:35:00;;;;;;;5.85;0.68;;;;;;;;;;5037473;28;20551;-62
2024/01/02 12:37:37;;;;;;;0.75;0.50;;;;;;;;;;5043917;28;20128;-63
2024/01/02 12:40:09;;;;;;;2.28;0.65;;;;;;;;;;5041052;28;20139;-62
2024/01/02 12:42:38;;;;;;;2.60;0.80;;;;;;;;;;5054865;28;20056;-62
2024/01/02 12:45:09;;;;;;;0.57;0.40;;;;;;;;;;5031137;28;20041;-62
2024/01/02 12:47:42;;;;;;;0.50;0.40;;;;;;;;;;5042504;28;20152;-64
2024/01/02 12:50:10;;;;;;;0.52;0.50;;;;;;;;;;5040624;28;20048;-63
2024/01/02 12:52:40;;;;;;;1.30;0.63;;;;;;;;;;5040326;28;20102;-64
2024/01/02 12:55:09;;;;;;;3.50;1.15;;;;;;;;;;5041689;28;20098;-62
2024/01/02 12:57:37;;;;;;;4.78;1.50;;;;;;;;;;5042787;28;20056;-63
2024/01/02 13:00:08;;;;;;;3.05;1.23;;;;;;;;;;5040428;28;20124;-62
2024/01/02 13:02:36;;;;;;;2.10;0.93;;;;;;;;;;5045254;28;20494;-63
2024/01/02 13:05:07;;;;;;;1.85;0.88;;;;;;;;;;5034476;28;20048;-64
2024/01/02 13:07:36;;;;;;;2.15;1.02;;;;;;;;;;5044700;28;20121;-63
2024/01/02 13:10:05;;;;;;;1.42;0.90;;;;;;;;;;5067968;28;20052;-62
2024/01/02 13:12:32;;;;;;;1.42;0.75;;;;;;;;;;5040948;28;20052;-64
2024/01/02 13:14:59;;;;;;;1.20;0.63;;;;;;;;;;5039542;28;20250;-62
2024/01/02 13:17:28;;;;;;;1.63;0.57;;;;;;;;;;5041921;28;20080;-61
2024/01/02 13:19:54;;;;;;;1.85;0.70;;;;;;;;;;5037275;27;20049;-63
2024/01/02 13:22:22;;;;;;;0.60;0.60;;;;;;;;;;5044383;28;20048;-61
2024/01/02 13:24:50;;;;;;;2.07;0.93;;;;;;;;;;5037323;28;20100;-62
2024/01/02 13:27:25;;;;;;;1.13;0.70;;;;;;;;;;5042685;28;20152;-62
2024/01/02 13:29:54;;;;;;;3.58;1.40;;;;;;;;;;5040126;28;20127;-65
2024/01/02 13:32:21;;;;;;;1.38;0.85;;;;;;;;;;5041274;28;20056;-65
2024/01/02 13:34:48;;;;;;;1.00;0.50;;;;;;;;;;5043874;28;20049;-63
2024/01/02 13:37:26;;;;;;;0.55;0.50;;;;;;;;;;5041809;28;20073;-62
2024/01/02 13:39:53;;;;;;;2.15;1.05;;;;;;;;;;5044657;28;20045;-63
2024/01/02 13:42:31;;;;;;;0.50;0.50;;;;;;;;;;5038536;28;20049;-61
2024/01/02 13:44:58;;;;;;;0.93;0.73;;;;;;;;;;5037500;28;20124;-62
2024/01/02 13:47:32;;;;;;;1.02;0.50;;;;;;;;;;5040047;28;20057;-62
2024/01/02 13:50:03;;;;;;;1.15;0.50;;;;;;;;;;5038292;28;20057;-63
2024/01/02 13:52:32;;;;;;;0.90;0.50;;;;;;;;;;5043026;28;20067;-62
2024/01/02 13:54:59;;;;;;;;;;;;;;;;;;5031030;28;20045;-62
2024/01/02 13:57:32;;;;;;;1.50;0.60;;;;;;;;;;5033881;28;19932;-65
2024/01/02 13:59:59;;;;;;;2.88;0.90;;;;;;;;;;5025923;28;20059;-65
2024/01/02 14:02:28;;;;;;;1.92;0.68;;;;;;;;;;5035416;28;20048;-65
2024/01/02 14:05:00;;;;;;;1.30;0.70;;;;;;;;;;5034932;28;20049;-62
2024/01/02 14:07:27;;;;;;;1.45;0.85;;;;;;;;;;5041428;28;20041;-62
2024/01/02 14:09:55;;;;;;;1.20;0.70;;;;;;;;;;5036479;28;20056;-62
2024/01/02 14:12:22;;;;;;;0.80;0.52;;;;;;;;;;5040584;28;20089;-62
2024/01/02 14:14:55;;;;;;;0.98;0.70;;;;;;;;;;5039376;28;20056;-63
2024/01/02 14:17:29;;;;;;;1.80;0.80;;;;;;;;;;5041519;28;20053;-65
2024/01/02 14:20:01;;;;;;;1.98;0.95;;;;;;;;;;5049419;28;20054;-66
2024/01/02 14:22:33;;;;;;;2.78;1.10;;;;;;;;;;5045386;28;20087;-63
2024/01/02 14:25:18;;;;;;;2.65;1.35;;;;;;;;;;5038250;28;20052;-62
2024/01/02 14:28:03;;;;;;;1.60;1.02;;;;;;;;;;5044657;28;20110;-65
2024/01/02 14:30:35;;;;;;;1.30;0.88;;;;;;;;;;5041896;28;20045;-65
2024/01/02 14:33:41;;;;;;;3.25;1.30;;;;;;;;;;5042250;28;20051;-65
2024/01/02 14:36:25;;;;;;;1.88;1.08;;;;;;;;;;4981906;28;20133;-64
2024/01/02 14:39:12;;;;;;;1.23;0.85;;;;;;;;;;5041258;28;20132;-64
2024/01/02 14:42:05;;;;;;;1.85;1.00;;;;;;;;;;5039827;28;20048;-65
2024/01/02 14:44:46;;;;;;;1.50;1.10;;;;;;;;;;5031118;28;20060;-64
2024/01/02 14:47:25;;;;;;;1.17;0.57;;;;;;;;;;5043013;28;20432;-63
2024/01/02 14:49:56;;;;;;;0.90;0.52;;;;;;;;;;5042678;28;20492;-63
2024/01/02 14:52:46;;;;;;;0.82;0.55;;;;;;;;;;5040410;28;20206;-65
2024/01/02 14:55:26;;;;;;;0.80;0.60;;;;;;;;;;5028042;28;20255;-66
2024/01/02 14:57:59;;;;;;;1.23;0.60;;;;;;;;;;5034913;28;20102;-65
2024/01/02 15:00:26;;;;;;;0.50;0.50;;;;;;;;;;5059524;28;20094;-64
2024/01/02 15:03:26;;;;;;;0.63;0.50;;;;;;;;;;5049228;28;20049;-63